createdAt,value
2019-01-24T00:00:17.052Z,-2.51
2019-01-24T00:01:26.990Z,-2.58
2019-01-24T00:02:36.415Z,-2.58
2019-01-24T00:03:46.341Z,-2.52
2019-01-24T00:04:56.021Z,-2.58
2019-01-24T00:06:05.707Z,-2.57
2019-01-24T00:07:15.396Z,-2.66
2019-01-24T00:08:25.081Z,-2.66
2019-01-24T00:09:34.794Z,-2.72
2019-01-24T00:10:44.725Z,-2.58
2019-01-24T00:11:54.416Z,-2.57
2019-01-24T00:13:04.346Z,-2.61
2019-01-24T00:14:14.329Z,-2.58
2019-01-24T00:15:24.075Z,-2.62
2019-01-24T00:16:34.025Z,-2.63
2019-01-24T00:17:43.958Z,-2.57
2019-01-24T00:18:53.887Z,-2.55
2019-01-24T00:20:03.848Z,-2.58
2019-01-24T00:21:13.522Z,-2.54
2019-01-24T00:22:23.457Z,-2.58
2019-01-24T00:23:33.385Z,-2.61
2019-01-24T00:24:43.327Z,-2.55
2019-01-24T00:25:53.259Z,-2.63
2019-01-24T00:27:03.199Z,-2.48
2019-01-24T00:28:13.156Z,-2.58
2019-01-24T00:29:23.103Z,-2.51
2019-01-24T00:30:33.072Z,-2.55
2019-01-24T00:31:42.767Z,-2.52
2019-01-24T00:32:52.721Z,-2.48
2019-01-24T00:34:02.398Z,-2.44
2019-01-24T00:35:12.332Z,-2.52
2019-01-24T00:36:21.760Z,-2.5
2019-01-24T00:37:31.444Z,-2.51
2019-01-24T00:38:41.374Z,-2.54
2019-01-24T00:39:51.316Z,-2.63
2019-01-24T00:41:00.989Z,-2.51
2019-01-24T00:42:10.664Z,-2.61
2019-01-24T00:43:20.605Z,-2.65
2019-01-24T00:44:30.548Z,-2.61
2019-01-24T00:45:40.486Z,-2.63
2019-01-24T00:46:50.155Z,-2.65
2019-01-24T00:47:59.588Z,-2.63
2019-01-24T00:49:09.520Z,-2.57
2019-01-24T00:50:18.944Z,-2.61
2019-01-24T00:51:28.870Z,-2.55
2019-01-24T00:52:38.812Z,-2.54
2019-01-24T00:53:48.746Z,-2.55
2019-01-24T00:54:58.688Z,-2.61
2019-01-24T00:56:08.124Z,-2.66
2019-01-24T00:57:18.066Z,-2.61
2019-01-24T00:58:27.749Z,-2.61
2019-01-24T00:59:37.186Z,-2.45
2019-01-24T01:00:47.138Z,-2.48
2019-01-24T01:01:56.810Z,-2.44
2019-01-24T01:03:06.480Z,-2.5
2019-01-24T01:04:16.151Z,-2.54
2019-01-24T01:05:26.062Z,-2.55
2019-01-24T01:06:35.754Z,-2.58
2019-01-24T01:07:45.693Z,-2.62
2019-01-24T01:08:55.645Z,-2.55
2019-01-24T01:10:04.665Z,-2.63
2019-01-24T01:11:14.596Z,-2.55
2019-01-24T01:12:24.540Z,-2.52
2019-01-24T01:13:34.215Z,-2.52
2019-01-24T01:14:44.151Z,-2.54
2019-01-24T01:15:53.832Z,-2.55
2019-01-24T01:17:03.756Z,-2.58
2019-01-24T01:18:13.457Z,-2.55
2019-01-24T01:19:23.404Z,-2.68
2019-01-24T01:20:33.334Z,-2.57
2019-01-24T01:21:42.764Z,-2.63
2019-01-24T01:22:52.693Z,-2.52
2019-01-24T01:24:02.631Z,-2.5
2019-01-24T01:25:12.317Z,-2.52
2019-01-24T01:26:21.991Z,-2.47
2019-01-24T01:27:31.914Z,-2.55
2019-01-24T01:28:41.591Z,-2.54
2019-01-24T01:29:51.520Z,-2.55
2019-01-24T01:31:01.198Z,-2.47
2019-01-24T01:32:11.136Z,-2.47
2019-01-24T01:33:20.830Z,-2.55
2019-01-24T01:34:36.066Z,-2.47
2019-01-24T01:35:46.083Z,-2.4
2019-01-24T01:36:55.508Z,-2.4
2019-01-24T01:38:05.182Z,-2.44
2019-01-24T01:39:14.872Z,-2.37
2019-01-24T01:40:24.555Z,-2.34
2019-01-24T01:41:34.224Z,-2.36
2019-01-24T01:42:44.168Z,-2.32
2019-01-24T01:43:54.103Z,-2.26
2019-01-24T01:45:03.516Z,-2.28
2019-01-24T01:46:12.938Z,-2.26
2019-01-24T01:47:22.881Z,-2.4
2019-01-24T01:48:32.804Z,-2.39
2019-01-24T01:49:42.730Z,-2.39
2019-01-24T01:50:52.655Z,-2.34
2019-01-24T01:52:02.578Z,-2.37
2019-01-24T01:53:12.250Z,-2.33
2019-01-24T01:54:22.192Z,-2.37
2019-01-24T01:55:31.879Z,-2.23
2019-01-24T01:56:41.312Z,-2.34
2019-01-24T01:57:51.250Z,-2.29
2019-01-24T01:59:00.933Z,-2.29
2019-01-24T02:00:10.616Z,-2.34
2019-01-24T02:01:20.540Z,-2.4
2019-01-24T02:02:29.962Z,-2.37
2019-01-24T02:03:39.645Z,-2.29
2019-01-24T02:04:49.613Z,-2.29
2019-01-24T02:05:59.548Z,-2.33
2019-01-24T02:07:09.476Z,-2.25
2019-01-24T02:08:19.418Z,-2.23
2019-01-24T02:09:29.088Z,-2.22
2019-01-24T02:10:39.014Z,-2.15
2019-01-24T02:11:48.206Z,-2.23
2019-01-24T02:12:57.390Z,-2.29
2019-01-24T02:14:07.088Z,-2.28
2019-01-24T02:15:17.039Z,-2.2
2019-01-24T02:16:26.980Z,-2.22
2019-01-24T02:17:36.907Z,-2.25
2019-01-24T02:18:46.858Z,-2.15
2019-01-24T02:19:56.538Z,-2.14
2019-01-24T02:21:06.486Z,-2.14
2019-01-24T02:22:16.164Z,-2.13
2019-01-24T02:23:26.126Z,-2.15
2019-01-24T02:24:35.307Z,-2.17
2019-01-24T02:25:44.732Z,-2.15
2019-01-24T02:26:54.410Z,-2.15
2019-01-24T02:28:04.097Z,-2.14
2019-01-24T02:29:14.040Z,-2.2
2019-01-24T02:30:23.737Z,-2.15
2019-01-24T02:31:33.687Z,-2.11
2019-01-24T02:32:43.636Z,-2.17
2019-01-24T02:33:53.601Z,-2.23
2019-01-24T02:35:03.309Z,-2.29
2019-01-24T02:36:13.256Z,-2.33
2019-01-24T02:37:23.211Z,-2.28
2019-01-24T02:38:32.897Z,-2.26
2019-01-24T02:39:42.578Z,-2.23
2019-01-24T02:40:52.519Z,-2.23
2019-01-24T02:42:02.483Z,-2.26
2019-01-24T02:43:12.433Z,-2.26
2019-01-24T02:44:22.120Z,-2.23
2019-01-24T02:45:31.808Z,-2.26
2019-01-24T02:46:41.491Z,-2.32
2019-01-24T02:47:51.443Z,-2.33
2019-01-24T02:49:00.872Z,-2.28
2019-01-24T02:50:10.811Z,-2.29
2019-01-24T02:51:20.261Z,-2.23
2019-01-24T02:52:30.222Z,-2.22
2019-01-24T02:53:39.907Z,-2.25
2019-01-24T02:54:49.611Z,-2.18
2019-01-24T02:55:59.325Z,-2.17
2019-01-24T02:57:09.474Z,-2.17
2019-01-24T02:58:19.430Z,-2.28
2019-01-24T02:59:29.352Z,-2.28
2019-01-24T03:00:39.289Z,-2.29
2019-01-24T03:01:49.216Z,-2.32
2019-01-24T03:02:58.888Z,-2.32
2019-01-24T03:04:08.313Z,-2.33
2019-01-24T03:05:18.238Z,-2.34
2019-01-24T03:06:27.925Z,-2.29
2019-01-24T03:07:37.618Z,-2.29
2019-01-24T03:08:47.318Z,-2.23
2019-01-24T03:09:57.314Z,-2.17
2019-01-24T03:11:07.027Z,-2.23
2019-01-24T03:12:16.965Z,-2.26
2019-01-24T03:13:26.910Z,-2.26
2019-01-24T03:14:36.606Z,-2.32
2019-01-24T03:15:46.319Z,-2.29
2019-01-24T03:16:56.259Z,-2.33
2019-01-24T03:18:05.944Z,-2.26
2019-01-24T03:19:15.627Z,-2.28
2019-01-24T03:20:25.323Z,-2.32
2019-01-24T03:21:35.259Z,-2.23
2019-01-24T03:22:44.929Z,-2.25
2019-01-24T03:23:54.618Z,-2.26
2019-01-24T03:25:04.555Z,-2.28
2019-01-24T03:26:14.261Z,-2.33
2019-01-24T03:27:23.947Z,-2.32
2019-01-24T03:28:33.639Z,-2.32
2019-01-24T03:29:43.774Z,-2.33
2019-01-24T03:30:53.460Z,-2.34
2019-01-24T03:32:03.491Z,-2.29
2019-01-24T03:33:13.195Z,-2.23
2019-01-24T03:34:22.897Z,-2.25
2019-01-24T03:35:32.827Z,-2.26
2019-01-24T03:36:42.274Z,-2.26
2019-01-24T03:37:51.995Z,-2.29
2019-01-24T03:39:01.935Z,-2.28
2019-01-24T03:40:11.637Z,-2.33
2019-01-24T03:41:21.588Z,-2.22
2019-01-24T03:42:31.540Z,-2.32
2019-01-24T03:43:41.210Z,-2.29
2019-01-24T03:44:51.143Z,-2.32
2019-01-24T03:46:01.094Z,-2.28
2019-01-24T03:47:11.037Z,-2.32
2019-01-24T03:48:20.974Z,-2.32
2019-01-24T03:49:30.411Z,-2.32
2019-01-24T03:50:40.117Z,-2.32
2019-01-24T03:51:50.046Z,-2.33
2019-01-24T03:52:59.473Z,-2.33
2019-01-24T03:54:09.411Z,-2.25
2019-01-24T03:55:19.099Z,-2.26
2019-01-24T03:56:28.779Z,-2.25
2019-01-24T03:57:38.472Z,-2.22
2019-01-24T03:58:48.396Z,-2.18
2019-01-24T03:59:58.327Z,-2.28
2019-01-24T04:01:08.013Z,-2.29
2019-01-24T04:02:17.945Z,-2.29
2019-01-24T04:03:27.870Z,-2.28
2019-01-24T04:04:37.553Z,-2.32
2019-01-24T04:05:46.985Z,-2.29
2019-01-24T04:06:56.406Z,-2.28
2019-01-24T04:08:06.349Z,-2.34
2019-01-24T04:09:16.285Z,-2.34
2019-01-24T04:10:25.972Z,-2.32
2019-01-24T04:11:35.672Z,-2.36
2019-01-24T04:12:45.596Z,-2.37
2019-01-24T04:13:55.052Z,-2.39
2019-01-24T04:15:04.759Z,-2.39
2019-01-24T04:16:15.045Z,-2.23
2019-01-24T04:17:24.999Z,-2.36
2019-01-24T04:18:34.703Z,-2.33
2019-01-24T04:19:44.636Z,-2.29
2019-01-24T04:20:54.317Z,-2.26
2019-01-24T04:22:04.255Z,-2.28
2019-01-24T04:23:14.211Z,-2.23
2019-01-24T04:24:23.908Z,-2.28
2019-01-24T04:25:33.340Z,-2.13
2019-01-24T04:26:43.279Z,-2.23
2019-01-24T04:27:53.228Z,-2.25
2019-01-24T04:29:03.197Z,-2.23
2019-01-24T04:30:13.153Z,-2.2
2019-01-24T04:31:22.838Z,-2.25
2019-01-24T04:32:32.528Z,-2.25
2019-01-24T04:33:42.492Z,-2.2
2019-01-24T04:34:52.443Z,-2.22
2019-01-24T04:36:02.380Z,-2.26
2019-01-24T04:37:12.318Z,-2.23
2019-01-24T04:38:22.025Z,-2.25
2019-01-24T04:39:31.708Z,-2.25
2019-01-24T04:40:41.659Z,-2.28
2019-01-24T04:41:51.382Z,-2.33
2019-01-24T04:43:00.836Z,-2.39
2019-01-24T04:44:10.524Z,-2.25
2019-01-24T04:45:20.473Z,-2.23
2019-01-24T04:46:30.407Z,-2.36
2019-01-24T04:47:40.116Z,-2.36
2019-01-24T04:48:50.043Z,-2.37
2019-01-24T04:49:59.487Z,-2.39
2019-01-24T04:51:09.208Z,-2.37
2019-01-24T04:52:19.131Z,-2.26
2019-01-24T04:53:28.556Z,-2.28
2019-01-24T04:54:38.285Z,-2.29
2019-01-24T04:55:47.966Z,-2.29
2019-01-24T04:56:57.898Z,-2.29
2019-01-24T04:58:07.329Z,-2.28
2019-01-24T04:59:17.025Z,-2.29
2019-01-24T05:00:26.723Z,-2.36
2019-01-24T05:01:36.660Z,-2.33
2019-01-24T05:02:46.088Z,-2.29
2019-01-24T05:03:55.767Z,-2.37
2019-01-24T05:05:05.727Z,-2.42
2019-01-24T05:06:15.668Z,-2.36
2019-01-24T05:07:25.344Z,-2.5
2019-01-24T05:08:35.290Z,-2.44
2019-01-24T05:09:45.230Z,-2.48
2019-01-24T05:10:54.712Z,-2.51
2019-01-24T05:12:04.408Z,-2.48
2019-01-24T05:13:14.362Z,-2.52
2019-01-24T05:14:23.799Z,-2.51
2019-01-24T05:15:33.505Z,-2.58
2019-01-24T05:16:43.439Z,-2.51
2019-01-24T05:17:53.368Z,-2.52
2019-01-24T05:19:03.306Z,-2.58
2019-01-24T05:20:13.246Z,-2.58
2019-01-24T05:21:23.182Z,-2.5
2019-01-24T05:22:33.114Z,-2.52
2019-01-24T05:23:42.794Z,-2.52
2019-01-24T05:24:52.234Z,-2.48
2019-01-24T05:26:01.936Z,-2.44
2019-01-24T05:27:11.903Z,-2.52
2019-01-24T05:28:21.354Z,-2.51
2019-01-24T05:29:31.029Z,-2.57
2019-01-24T05:30:40.724Z,-2.52
2019-01-24T05:31:50.409Z,-2.61
2019-01-24T05:33:00.359Z,-2.65
2019-01-24T05:34:10.043Z,-2.62
2019-01-24T05:35:19.492Z,-2.51
2019-01-24T05:36:29.207Z,-2.54
2019-01-24T05:37:39.135Z,-2.62
2019-01-24T05:38:48.823Z,-2.52
2019-01-24T05:39:58.264Z,-2.54
2019-01-24T05:41:08.213Z,-2.61
2019-01-24T05:42:17.895Z,-2.65
2019-01-24T05:43:27.836Z,-2.62
2019-01-24T05:44:37.789Z,-2.57
2019-01-24T05:45:47.474Z,-2.61
2019-01-24T05:46:57.437Z,-2.61
2019-01-24T05:48:07.364Z,-2.75
2019-01-24T05:49:17.048Z,-2.73
2019-01-24T05:50:27.010Z,-2.61
2019-01-24T05:51:36.953Z,-2.72
2019-01-24T05:52:46.647Z,-2.72
2019-01-24T05:53:56.571Z,-2.75
2019-01-24T05:55:06.515Z,-2.8
2019-01-24T05:56:15.696Z,-2.75
2019-01-24T05:57:25.122Z,-2.76
2019-01-24T05:58:34.800Z,-2.84
2019-01-24T05:59:44.746Z,-2.86
2019-01-24T06:00:54.429Z,-2.86
2019-01-24T06:02:04.104Z,-2.81
2019-01-24T06:03:13.811Z,-2.93
2019-01-24T06:04:23.736Z,-2.84
2019-01-24T06:05:33.681Z,-2.91
2019-01-24T06:06:49.258Z,-2.96
2019-01-24T06:07:58.942Z,-2.83
2019-01-24T06:09:08.366Z,-2.89
2019-01-24T06:10:17.546Z,-2.87
2019-01-24T06:11:27.244Z,-2.98
2019-01-24T06:12:37.188Z,-2.9
2019-01-24T06:13:46.889Z,-2.96
2019-01-24T06:14:56.814Z,-2.89
2019-01-24T06:16:06.739Z,-2.81
2019-01-24T06:17:16.683Z,-2.8
2019-01-24T06:18:26.370Z,-2.8
2019-01-24T06:19:36.309Z,-2.8
2019-01-24T06:20:46.006Z,-2.87
2019-01-24T06:21:55.700Z,-2.83
2019-01-24T06:23:05.647Z,-2.83
2019-01-24T06:24:16.524Z,-2.78
2019-01-24T06:25:26.480Z,-2.75
2019-01-24T06:26:36.422Z,-2.8
2019-01-24T06:27:46.111Z,-2.81
2019-01-24T06:28:55.802Z,-2.81
2019-01-24T06:30:08.239Z,-2.78
2019-01-24T06:31:18.177Z,-2.8
2019-01-24T06:32:28.118Z,-2.76
2019-01-24T06:33:38.064Z,-2.83
2019-01-24T06:34:48.022Z,-2.84
2019-01-24T06:35:57.708Z,-2.84
2019-01-24T06:37:07.665Z,-2.78
2019-01-24T06:38:17.622Z,-2.83
2019-01-24T06:39:27.304Z,-2.84
2019-01-24T06:40:37.238Z,-2.76
2019-01-24T06:41:46.656Z,-2.68
2019-01-24T06:42:56.592Z,-2.7
2019-01-24T06:44:06.019Z,-2.69
2019-01-24T06:45:15.947Z,-2.65
2019-01-24T06:46:25.640Z,-2.65
2019-01-24T06:47:35.064Z,-2.57
2019-01-24T06:48:44.816Z,-2.45
2019-01-24T06:49:54.261Z,-2.55
2019-01-24T06:51:03.981Z,-2.51
2019-01-24T06:52:13.910Z,-2.42
2019-01-24T06:53:23.368Z,-2.48
2019-01-24T06:54:33.056Z,-2.48
2019-01-24T06:55:42.984Z,-2.47
2019-01-24T06:56:52.908Z,-2.52
2019-01-24T06:58:02.331Z,-2.48
2019-01-24T06:59:12.270Z,-2.5
2019-01-24T07:00:21.709Z,-2.57
2019-01-24T07:01:31.650Z,-2.55
2019-01-24T07:02:41.852Z,-2.51
2019-01-24T07:03:51.802Z,-2.5
2019-01-24T07:05:01.730Z,-2.48
2019-01-24T07:06:11.421Z,-2.5
2019-01-24T07:07:21.448Z,-2.57
2019-01-24T07:08:31.133Z,-2.63
2019-01-24T07:09:41.080Z,-2.55
2019-01-24T07:10:51.021Z,-2.57
2019-01-24T07:12:00.970Z,-2.7
2019-01-24T07:13:10.917Z,-2.7
2019-01-24T07:14:20.856Z,-2.8
2019-01-24T07:15:30.820Z,-2.69
2019-01-24T07:16:40.519Z,-2.65
2019-01-24T07:17:50.468Z,-2.68
2019-01-24T07:19:00.419Z,-2.62
2019-01-24T07:20:10.356Z,-2.63
2019-01-24T07:21:20.052Z,-2.65
2019-01-24T07:22:29.728Z,-2.65
2019-01-24T07:23:39.448Z,-2.72
2019-01-24T07:24:49.402Z,-2.75
2019-01-24T07:25:59.092Z,-2.62
2019-01-24T07:27:08.785Z,-2.68
2019-01-24T07:28:18.264Z,-2.73
2019-01-24T07:29:27.992Z,-2.75
2019-01-24T07:30:37.945Z,-2.73
2019-01-24T07:31:47.407Z,-2.83
2019-01-24T07:32:57.102Z,-2.86
2019-01-24T07:34:07.364Z,-2.84
2019-01-24T07:35:17.319Z,-2.86
2019-01-24T07:36:27.265Z,-2.78
2019-01-24T07:37:37.216Z,-2.83
2019-01-24T07:38:46.914Z,-2.83
2019-01-24T07:39:56.384Z,-2.75
2019-01-24T07:41:06.132Z,-2.9
2019-01-24T07:42:15.848Z,-2.8
2019-01-24T07:43:25.791Z,-2.83
2019-01-24T07:44:35.750Z,-2.78
2019-01-24T07:45:45.689Z,-2.81
2019-01-24T07:46:55.636Z,-2.73
2019-01-24T07:48:05.608Z,-2.83
2019-01-24T07:49:15.565Z,-2.86
2019-01-24T07:50:25.843Z,-2.84
2019-01-24T07:51:35.556Z,-2.93
2019-01-24T07:52:45.502Z,-2.87
2019-01-24T07:53:55.431Z,-2.86
2019-01-24T07:55:05.372Z,-2.75
2019-01-24T07:56:16.100Z,-2.73
2019-01-24T07:57:25.546Z,-2.76
2019-01-24T07:58:35.736Z,-2.68
2019-01-24T07:59:45.686Z,-2.68
2019-01-24T08:00:55.130Z,-2.63
2019-01-24T08:02:05.082Z,-2.55
2019-01-24T08:03:15.040Z,-2.54
2019-01-24T08:04:24.476Z,-2.51
2019-01-24T08:05:34.238Z,-2.5
2019-01-24T08:06:45.578Z,-2.47
2019-01-24T08:07:55.338Z,-2.47
2019-01-24T08:09:05.030Z,-2.42
2019-01-24T08:10:14.996Z,-2.54
2019-01-24T08:11:24.715Z,-2.48
2019-01-24T08:12:34.196Z,-2.48
2019-01-24T08:13:44.187Z,-2.58
2019-01-24T08:14:54.428Z,-2.55
2019-01-24T08:16:04.410Z,-2.57
2019-01-24T08:17:14.124Z,-2.52
2019-01-24T08:18:23.829Z,-2.5
2019-01-24T08:19:33.270Z,-2.44
2019-01-24T08:20:44.054Z,-2.48
2019-01-24T08:21:54.105Z,-2.5
2019-01-24T08:23:04.430Z,-2.51
2019-01-24T08:24:14.220Z,-2.58
2019-01-24T08:25:24.279Z,-2.5
2019-01-24T08:26:33.966Z,-2.51
2019-01-24T08:27:43.908Z,-2.5
2019-01-24T08:28:53.874Z,-2.39
2019-01-24T08:30:03.826Z,-2.36
2019-01-24T08:31:13.773Z,-2.39
2019-01-24T08:32:23.466Z,-2.4
2019-01-24T08:33:33.401Z,-2.36
2019-01-24T08:34:43.166Z,-2.37
2019-01-24T08:35:52.689Z,-2.51
2019-01-24T08:37:02.669Z,-2.58
2019-01-24T08:38:12.411Z,-2.51
2019-01-24T08:39:22.388Z,-2.52
2019-01-24T08:40:32.075Z,-2.48
2019-01-24T08:41:42.026Z,-2.48
2019-01-24T08:42:51.966Z,-2.4
2019-01-24T08:44:01.904Z,-2.44
2019-01-24T08:45:11.332Z,-2.42
2019-01-24T08:46:21.284Z,-2.39
2019-01-24T08:47:31.290Z,-2.33
2019-01-24T08:48:40.972Z,-2.33
2019-01-24T08:49:50.700Z,-2.32
2019-01-24T08:51:00.384Z,-2.26
2019-01-24T08:52:10.330Z,-2.17
2019-01-24T08:53:20.266Z,-2.26
2019-01-24T08:54:29.710Z,-2.11
2019-01-24T08:55:39.897Z,-2.23
2019-01-24T08:56:49.846Z,-2.17
2019-01-24T08:57:59.544Z,-2.13
2019-01-24T08:59:09.234Z,-2.15
2019-01-24T09:00:19.191Z,-2.26
2019-01-24T09:01:29.136Z,-2.28
2019-01-24T09:02:38.590Z,-2.28
2019-01-24T09:03:48.593Z,-2.29
2019-01-24T09:04:58.834Z,-2.29
2019-01-24T09:06:08.540Z,-2.29
2019-01-24T09:07:18.498Z,-2.34
2019-01-24T09:08:28.483Z,-2.26
2019-01-24T09:09:38.423Z,-2.23
2019-01-24T09:10:48.390Z,-2.26
2019-01-24T09:11:57.856Z,-2.32
2019-01-24T09:13:07.578Z,-2.33
2019-01-24T09:14:16.782Z,-2.32
2019-01-24T09:15:26.488Z,-2.51
2019-01-24T09:16:36.943Z,-2.5
2019-01-24T09:17:46.672Z,-2.47
2019-01-24T09:18:56.668Z,-2.44
2019-01-24T09:20:06.115Z,-2.52
2019-01-24T09:21:15.572Z,-2.48
2019-01-24T09:22:25.306Z,-2.42
2019-01-24T09:23:34.749Z,-2.37
2019-01-24T09:24:44.710Z,-2.23
2019-01-24T09:25:54.646Z,-2.32
2019-01-24T09:27:04.342Z,-2.39
2019-01-24T09:28:19.802Z,-2.37
2019-01-24T09:29:29.759Z,-2.34
2019-01-24T09:30:39.708Z,-2.29
2019-01-24T09:31:49.673Z,-2.29
2019-01-24T09:32:59.637Z,-2.25
2019-01-24T09:34:09.579Z,-2.33
2019-01-24T09:35:19.532Z,-2.29
2019-01-24T09:36:33.783Z,-2.29
2019-01-24T09:37:43.761Z,-2.28
2019-01-24T09:38:53.710Z,-2.28
2019-01-24T09:40:03.722Z,-2.29
2019-01-24T09:41:13.670Z,-2.34
2019-01-24T09:42:23.603Z,-2.29
2019-01-24T09:43:33.546Z,-2.33
2019-01-24T09:44:43.488Z,-2.29
2019-01-24T09:45:53.200Z,-2.36
2019-01-24T09:47:02.898Z,-2.26
2019-01-24T09:48:12.871Z,-2.32
2019-01-24T09:49:22.583Z,-2.37
2019-01-24T09:50:32.530Z,-2.37
2019-01-24T09:51:42.469Z,-2.39
2019-01-24T09:52:52.189Z,-2.47
2019-01-24T09:54:02.134Z,-2.47
2019-01-24T09:55:11.831Z,-2.37
2019-01-24T09:56:21.551Z,-2.32
2019-01-24T09:57:31.529Z,-2.32
2019-01-24T09:58:41.509Z,-2.29
2019-01-24T09:59:51.201Z,-2.29
2019-01-24T10:01:01.145Z,-2.28
2019-01-24T10:02:10.839Z,-2.29
2019-01-24T10:03:20.832Z,-2.32
2019-01-24T10:04:30.799Z,-2.25
2019-01-24T10:05:40.731Z,-2.22
2019-01-24T10:06:50.655Z,-2.18
2019-01-24T10:08:00.154Z,-2.13
2019-01-24T10:09:10.111Z,-2.18
2019-01-24T10:10:19.632Z,-2.32
2019-01-24T10:11:29.329Z,-2.18
2019-01-24T10:12:39.020Z,-2.17
2019-01-24T10:13:49.013Z,-2.14
2019-01-24T10:14:58.738Z,-2.11
2019-01-24T10:16:08.479Z,-2.13
2019-01-24T10:17:18.436Z,-2.11
2019-01-24T10:18:28.404Z,-2.11
2019-01-24T10:19:37.855Z,-2.2
2019-01-24T10:20:47.537Z,-2.1
2019-01-24T10:21:57.213Z,-2.05
2019-01-24T10:23:07.193Z,-2.07
2019-01-24T10:24:17.138Z,-1.96
2019-01-24T10:25:27.084Z,-2.02
2019-01-24T10:26:36.810Z,-2.1
2019-01-24T10:27:46.749Z,-2.15
2019-01-24T10:28:56.449Z,-2.17
2019-01-24T10:30:06.395Z,-2.05
2019-01-24T10:31:16.346Z,-2.11
2019-01-24T10:32:25.787Z,-2.1
2019-01-24T10:33:35.489Z,-2.13
2019-01-24T10:34:46.651Z,-2.15
2019-01-24T10:35:56.919Z,-2.23
2019-01-24T10:37:06.864Z,-2.23
2019-01-24T10:38:16.799Z,-2.32
2019-01-24T10:39:26.511Z,-2.42
2019-01-24T10:40:36.467Z,-2.54
2019-01-24T10:41:46.431Z,-2.52
2019-01-24T10:42:56.390Z,-2.5
2019-01-24T10:44:06.076Z,-2.62
2019-01-24T10:45:16.025Z,-2.48
2019-01-24T10:46:25.986Z,-2.5
2019-01-24T10:47:35.711Z,-2.48
2019-01-24T10:48:45.445Z,-2.26
2019-01-24T10:49:55.378Z,-2.25
2019-01-24T10:51:05.090Z,-2.25
2019-01-24T10:52:14.789Z,-2.14
2019-01-24T10:53:24.010Z,-2.1
2019-01-24T10:54:33.957Z,-2.13
2019-01-24T10:55:43.651Z,-1.94
2019-01-24T10:56:53.669Z,-1.97
2019-01-24T10:58:03.417Z,-2.08
2019-01-24T10:59:13.365Z,-2.02
2019-01-24T11:00:23.321Z,-2.02
2019-01-24T11:01:33.265Z,-1.99
2019-01-24T11:02:43.215Z,-2.04
2019-01-24T11:03:52.956Z,-2.04
2019-01-24T11:05:02.900Z,-1.96
2019-01-24T11:06:12.855Z,-2.02
2019-01-24T11:07:22.579Z,-2.13
2019-01-24T11:08:32.290Z,-2.1
2019-01-24T11:09:41.985Z,-2.05
2019-01-24T11:10:51.682Z,-2.07
2019-01-24T11:12:01.404Z,-2.1
2019-01-24T11:13:11.125Z,-2.05
2019-01-24T11:14:21.081Z,-2.08
2019-01-24T11:15:30.516Z,-2.14
2019-01-24T11:16:40.285Z,-2.1
2019-01-24T11:17:49.973Z,-2.1
2019-01-24T11:18:59.659Z,-2.07
2019-01-24T11:20:09.621Z,-2.1
2019-01-24T11:21:19.325Z,-2.15
2019-01-24T11:22:29.318Z,-2.23
2019-01-24T11:23:39.008Z,-2.25
2019-01-24T11:24:48.719Z,-2.2
2019-01-24T11:25:58.146Z,-2.26
2019-01-24T11:27:07.846Z,-2.18
2019-01-24T11:28:17.810Z,-2.23
2019-01-24T11:29:27.792Z,-2.28
2019-01-24T11:30:37.753Z,-2.29
2019-01-24T11:31:47.724Z,-2.28
2019-01-24T11:32:57.657Z,-2.33
2019-01-24T11:34:07.591Z,-2.36
2019-01-24T11:35:17.282Z,-2.26
2019-01-24T11:36:27.218Z,-2.26
2019-01-24T11:37:36.664Z,-2.23
2019-01-24T11:38:46.602Z,-2.23
2019-01-24T11:39:56.288Z,-2.22
2019-01-24T11:41:06.221Z,-2.25
2019-01-24T11:42:16.140Z,-2.13
2019-01-24T11:43:25.673Z,-2.25
2019-01-24T11:44:36.138Z,-2.28
2019-01-24T11:45:46.182Z,-2.34
2019-01-24T11:46:55.611Z,-2.45
2019-01-24T11:48:05.555Z,-2.45
2019-01-24T11:49:15.251Z,-2.54
2019-01-24T11:50:24.955Z,-2.52
2019-01-24T11:51:34.169Z,-2.51
2019-01-24T11:52:44.121Z,-2.52
2019-01-24T11:53:57.955Z,-2.51
2019-01-24T11:55:07.897Z,-2.54
2019-01-24T11:56:17.610Z,-2.5
2019-01-24T11:57:27.547Z,-2.5
2019-01-24T11:58:37.503Z,-2.45
2019-01-24T11:59:47.468Z,-2.5
2019-01-24T12:00:57.411Z,-2.57
2019-01-24T12:02:07.075Z,-2.65
2019-01-24T12:03:16.996Z,-2.66
2019-01-24T12:04:26.945Z,-2.66
2019-01-24T12:05:36.898Z,-2.68
2019-01-24T12:06:46.585Z,-2.62
2019-01-24T12:07:56.337Z,-2.65
2019-01-24T12:09:06.302Z,-2.65
2019-01-24T12:10:15.746Z,-2.62
2019-01-24T12:11:25.684Z,-2.66
2019-01-24T12:12:35.667Z,-2.78
2019-01-24T12:13:45.372Z,-2.8
2019-01-24T12:14:55.061Z,-2.81
2019-01-24T12:16:05.017Z,-2.8
2019-01-24T12:17:14.688Z,-2.83
2019-01-24T12:18:24.763Z,-2.78
2019-01-24T12:19:34.715Z,-2.72
2019-01-24T12:20:44.395Z,-2.86
2019-01-24T12:21:54.360Z,-2.89
2019-01-24T12:23:03.812Z,-2.83
2019-01-24T12:24:13.501Z,-2.89
2019-01-24T12:25:23.229Z,-2.8
2019-01-24T12:26:32.669Z,-2.84
2019-01-24T12:27:42.616Z,-2.94
2019-01-24T12:28:52.566Z,-2.84
2019-01-24T12:30:02.556Z,-2.76
2019-01-24T12:31:12.247Z,-2.89
2019-01-24T12:32:21.692Z,-2.98
2019-01-24T12:33:31.635Z,-2.96
2019-01-24T12:34:41.577Z,-2.93
2019-01-24T12:35:51.510Z,-2.89
2019-01-24T12:37:01.206Z,-3.01
2019-01-24T12:38:16.301Z,-2.98
2019-01-24T12:39:26.225Z,-2.9
2019-01-24T12:40:36.161Z,-2.93
2019-01-24T12:41:45.345Z,-2.93
2019-01-24T12:42:55.295Z,-2.8
2019-01-24T12:44:05.252Z,-2.83
2019-01-24T12:45:14.953Z,-2.81
2019-01-24T12:46:24.886Z,-2.9
2019-01-24T12:47:34.855Z,-2.86
2019-01-24T12:48:44.291Z,-3.01
2019-01-24T12:49:54.885Z,-3.01
2019-01-24T12:51:04.834Z,-2.94
2019-01-24T12:52:14.518Z,-2.96
2019-01-24T12:53:24.217Z,-2.99
2019-01-24T12:54:33.651Z,-2.99
2019-01-24T12:55:43.655Z,-2.94
2019-01-24T12:56:53.369Z,-2.83
2019-01-24T12:58:02.820Z,-2.89
2019-01-24T12:59:12.784Z,-2.81
2019-01-24T13:00:22.774Z,-2.83
2019-01-24T13:01:32.739Z,-2.84
2019-01-24T13:02:42.715Z,-2.78
2019-01-24T13:03:52.414Z,-2.8
2019-01-24T13:05:02.364Z,-2.78
2019-01-24T13:06:13.632Z,-2.75
2019-01-24T13:07:23.404Z,-2.7
2019-01-24T13:08:33.346Z,-2.75
2019-01-24T13:09:43.029Z,-2.72
2019-01-24T13:10:52.977Z,-2.78
2019-01-24T13:12:02.933Z,-2.76
2019-01-24T13:13:12.906Z,-2.75
2019-01-24T13:14:22.613Z,-2.72
2019-01-24T13:15:32.313Z,-2.73
2019-01-24T13:16:42.270Z,-2.76
2019-01-24T13:17:52.211Z,-2.8
2019-01-24T13:19:02.152Z,-2.81
2019-01-24T13:20:12.112Z,-2.76
2019-01-24T13:21:21.786Z,-2.83
2019-01-24T13:22:31.725Z,-2.73
2019-01-24T13:23:41.683Z,-2.8
2019-01-24T13:24:51.625Z,-2.78
2019-01-24T13:26:01.565Z,-2.75
2019-01-24T13:27:11.336Z,-2.73
2019-01-24T13:28:21.281Z,-2.76
2019-01-24T13:29:31.238Z,-2.8
2019-01-24T13:30:41.178Z,-2.76
2019-01-24T13:31:50.866Z,-2.78
2019-01-24T13:33:00.856Z,-2.73
2019-01-24T13:34:10.562Z,-2.76
2019-01-24T13:35:20.507Z,-2.75
2019-01-24T13:36:30.214Z,-2.81
2019-01-24T13:37:40.150Z,-2.8
2019-01-24T13:38:50.120Z,-2.78
2019-01-24T13:40:00.123Z,-2.83
2019-01-24T13:41:09.910Z,-2.78
2019-01-24T13:42:19.654Z,-2.83
2019-01-24T13:43:29.385Z,-2.8
2019-01-24T13:44:39.340Z,-2.84
2019-01-24T13:45:49.294Z,-2.83
2019-01-24T13:46:59.291Z,-2.83
2019-01-24T13:48:09.244Z,-2.8
2019-01-24T13:49:19.178Z,-2.81
2019-01-24T13:50:28.873Z,-2.83
2019-01-24T13:51:38.311Z,-2.75
2019-01-24T13:52:48.002Z,-2.76
2019-01-24T13:53:57.972Z,-2.75
2019-01-24T13:55:07.941Z,-2.86
2019-01-24T13:56:17.392Z,-2.78
2019-01-24T13:57:27.096Z,-2.75
2019-01-24T13:58:36.782Z,-2.83
2019-01-24T13:59:46.940Z,-2.73
2019-01-24T14:00:56.376Z,-2.76
2019-01-24T14:02:06.327Z,-2.8
2019-01-24T14:03:16.269Z,-2.78
2019-01-24T14:04:26.209Z,-2.76
2019-01-24T14:05:36.174Z,-2.76
2019-01-24T14:06:46.093Z,-2.81
2019-01-24T14:07:56.046Z,-2.8
2019-01-24T14:09:05.992Z,-2.78
2019-01-24T14:10:15.956Z,-2.73
2019-01-24T14:11:25.905Z,-2.8
2019-01-24T14:12:35.829Z,-2.76
2019-01-24T14:13:45.500Z,-2.83
2019-01-24T14:14:55.450Z,-2.75
2019-01-24T14:16:04.909Z,-2.73
2019-01-24T14:17:14.621Z,-2.72
2019-01-24T14:18:24.570Z,-2.8
2019-01-24T14:19:34.488Z,-2.68
2019-01-24T14:20:44.447Z,-2.65
2019-01-24T14:21:55.020Z,-2.75
2019-01-24T14:23:04.768Z,-2.78
2019-01-24T14:24:14.704Z,-2.84
2019-01-24T14:25:24.150Z,-2.87
2019-01-24T14:26:34.093Z,-2.96
2019-01-24T14:27:44.067Z,-2.91
2019-01-24T14:28:54.020Z,-2.84
2019-01-24T14:30:03.714Z,-2.76
2019-01-24T14:31:13.413Z,-2.84
2019-01-24T14:32:23.101Z,-2.84
2019-01-24T14:33:33.007Z,-2.86
2019-01-24T14:34:44.424Z,-2.8
2019-01-24T14:35:54.369Z,-2.83
2019-01-24T14:37:04.065Z,-2.8
2019-01-24T14:38:14.026Z,-2.83
2019-01-24T14:39:23.974Z,-2.81
2019-01-24T14:40:33.934Z,-2.83
2019-01-24T14:41:43.381Z,-2.8
2019-01-24T14:42:53.330Z,-2.93
2019-01-24T14:44:03.240Z,-3.05
2019-01-24T14:45:13.183Z,-3.01
2019-01-24T14:46:22.875Z,-2.96
2019-01-24T14:47:32.822Z,-2.94
2019-01-24T14:48:42.768Z,-2.86
2019-01-24T14:49:52.454Z,-2.87
2019-01-24T14:51:02.147Z,-2.89
2019-01-24T14:52:12.129Z,-2.83
2019-01-24T14:53:22.077Z,-2.84
2019-01-24T14:54:32.245Z,-2.81
2019-01-24T14:55:41.945Z,-2.9
2019-01-24T14:56:51.632Z,-2.98
2019-01-24T14:58:01.325Z,-2.98
2019-01-24T14:59:11.278Z,-2.94
2019-01-24T15:00:20.971Z,-2.96
2019-01-24T15:01:30.916Z,-3.01
2019-01-24T15:02:41.345Z,-3.01